sensor_id;sensor_type;location;lat;lon;timestamp;temperature;humidity
39621;DHT22;25309;48.686;9.170;2022-11-13T04:03:01;4.40;99.90
39621;DHT22;25309;48.686;9.170;2022-11-13T04:05:47;4.30;99.90
39621;DHT22;25309;48.686;9.170;2022-11-13T04:08:33;4.30;99.90
39621;DHT22;25309;48.686;9.170;2022-11-13T04:11:20;4.30;99.90
39621;DHT22;25309;48.686;9.170;2022-11-13T04:14:05;4.30;99.90
39621;DHT22;25309;48.686;9.170;2022-11-13T04:16:51;4.30;99.90
39621;DHT22;25309;48.686;9.170;2022-11-13T04:19:38;4.30;99.90
39621;DHT22;25309;48.686;9.170;2022-11-13T04:22:23;4.30;99.90
39621;DHT22;25309;48.686;9.170;2022-11-13T04:25:09;4.20;99.90
39621;DHT22;25309;48.686;9.170;2022-11-13T04:27:54;4.20;99.90
39621;DHT22;25309;48.686;9.170;2022-11-13T04:30:40;4.20;99.90
39621;DHT22;25309;48.686;9.170;2022-11-13T04:33:26;4.30;99.90
39621;DHT22;25309;48.686;9.170;2022-11-13T04:36:13;4.30;99.90
39621;DHT22;25309;48.686;9.170;2022-11-13T04:38:58;4.30;99.90
39621;DHT22;25309;48.686;9.170;2022-11-13T04:41:44;4.30;99.90
39621;DHT22;25309;48.686;9.170;2022-11-13T04:44:48;4.20;99.90
39621;DHT22;25309;48.686;9.170;2022-11-13T04:47:34;4.20;99.90
39621;DHT22;25309;48.686;9.170;2022-11-13T04:50:20;4.30;99.90
39621;DHT22;25309;48.686;9.170;2022-11-13T04:53:07;4.20;99.90
39621;DHT22;25309;48.686;9.170;2022-11-13T04:55:52;4.20;99.90
39621;DHT22;25309;48.686;9.170;2022-11-13T04:58:38;4.10;99.90
39621;DHT22;25309;48.686;9.170;2022-11-13T05:01:23;4.10;99.90
39621;DHT22;25309;48.686;9.170;2022-11-13T05:04:11;4.10;99.90
39621;DHT22;25309;48.686;9.170;2022-11-13T05:06:57;4.10;99.90
39621;DHT22;25309;48.686;9.170;2022-11-13T05:09:43;4.10;99.90
39621;DHT22;25309;48.686;9.170;2022-11-13T05:12:29;4.10;99.90
39621;DHT22;25309;48.686;9.170;2022-11-13T05:15:15;4.10;99.90
39621;DHT22;25309;48.686;9.170;2022-11-13T05:18:00;4.10;99.90
39621;DHT22;25309;48.686;9.170;2022-11-13T05:20:46;4.10;99.90
39621;DHT22;25309;48.686;9.170;2022-11-13T05:23:32;4.00;99.90
39621;DHT22;25309;48.686;9.170;2022-11-13T05:26:19;4.00;99.90
39621;DHT22;25309;48.686;9.170;2022-11-13T05:29:04;4.00;99.90
39621;DHT22;25309;48.686;9.170;2022-11-13T05:31:50;4.00;99.90
39621;DHT22;25309;48.686;9.170;2022-11-13T05:34:35;4.00;99.90
39621;DHT22;25309;48.686;9.170;2022-11-13T05:37:21;4.00;99.90
39621;DHT22;25309;48.686;9.170;2022-11-13T05:40:07;3.90;99.90
39621;DHT22;25309;48.686;9.170;2022-11-13T05:42:54;3.90;99.90
39621;DHT22;25309;48.686;9.170;2022-11-13T05:45:39;3.90;99.90
39621;DHT22;25309;48.686;9.170;2022-11-13T05:48:25;3.90;99.90
39621;DHT22;25309;48.686;9.170;2022-11-13T05:51:13;3.90;99.90
39621;DHT22;25309;48.686;9.170;2022-11-13T05:53:59;3.90;99.90
39621;DHT22;25309;48.686;9.170;2022-11-13T05:56:44;3.90;99.90
39621;DHT22;25309;48.686;9.170;2022-11-13T05:59:31;3.90;99.90
39621;DHT22;25309;48.686;9.170;2022-11-13T06:02:17;3.90;99.90
39621;DHT22;25309;48.686;9.170;2022-11-13T06:05:03;3.80;99.90
39621;DHT22;25309;48.686;9.170;2022-11-13T06:07:49;3.80;99.90
39621;DHT22;25309;48.686;9.170;2022-11-13T06:10:34;3.80;99.90
39621;DHT22;25309;48.686;9.170;2022-11-13T06:13:20;3.80;99.90
39621;DHT22;25309;48.686;9.170;2022-11-13T06:16:09;3.80;99.90
39621;DHT22;25309;48.686;9.170;2022-11-13T06:18:56;3.80;99.90
39621;DHT22;25309;48.686;9.170;2022-11-13T06:21:41;3.80;99.90
39621;DHT22;25309;48.686;9.170;2022-11-13T06:24:27;3.80;99.90
39621;DHT22;25309;48.686;9.170;2022-11-13T06:27:12;3.80;99.90
39621;DHT22;25309;48.686;9.170;2022-11-13T06:29:58;3.80;99.90
39621;DHT22;25309;48.686;9.170;2022-11-13T06:32:50;3.80;99.90
39621;DHT22;25309;48.686;9.170;2022-11-13T06:35:36;3.70;99.90
39621;DHT22;25309;48.686;9.170;2022-11-13T06:38:21;3.60;99.90
39621;DHT22;25309;48.686;9.170;2022-11-13T06:41:08;3.50;99.90
39621;DHT22;25309;48.686;9.170;2022-11-13T06:43:54;3.50;99.90
39621;DHT22;25309;48.686;9.170;2022-11-13T06:46:46;3.40;99.90
39621;DHT22;25309;48.686;9.170;2022-11-13T06:49:34;3.30;99.90
39621;DHT22;25309;48.686;9.170;2022-11-13T06:52:19;3.30;99.90
39621;DHT22;25309;48.686;9.170;2022-11-13T06:55:05;3.30;99.90
39621;DHT22;25309;48.686;9.170;2022-11-13T06:57:50;3.30;99.90
39621;DHT22;25309;48.686;9.170;2022-11-13T07:00:36;3.30;99.90
39621;DHT22;25309;48.686;9.170;2022-11-13T07:03:25;3.30;99.90
39621;DHT22;25309;48.686;9.170;2022-11-13T07:06:14;3.30;99.90
39621;DHT22;25309;48.686;9.170;2022-11-13T07:09:00;3.20;99.90
39621;DHT22;25309;48.686;9.170;2022-11-13T07:11:45;3.30;99.90
39621;DHT22;25309;48.686;9.170;2022-11-13T07:14:31;3.30;99.90
39621;DHT22;25309;48.686;9.170;2022-11-13T07:17:17;3.30;99.90
39621;DHT22;25309;48.686;9.170;2022-11-13T07:20:03;3.40;99.90
39621;DHT22;25309;48.686;9.170;2022-11-13T07:22:50;3.40;99.90
39621;DHT22;25309;48.686;9.170;2022-11-13T07:25:38;3.40;99.90
39621;DHT22;25309;48.686;9.170;2022-11-13T07:28:24;3.40;99.90
39621;DHT22;25309;48.686;9.170;2022-11-13T07:31:11;3.40;99.90
39621;DHT22;25309;48.686;9.170;2022-11-13T07:33:57;3.40;99.90
39621;DHT22;25309;48.686;9.170;2022-11-13T07:36:43;3.40;99.90
39621;DHT22;25309;48.686;9.170;2022-11-13T07:39:30;3.30;99.90
39621;DHT22;25309;48.686;9.170;2022-11-13T07:42:15;3.20;99.90
39621;DHT22;25309;48.686;9.170;2022-11-13T07:45:01;3.20;99.90
39621;DHT22;25309;48.686;9.170;2022-11-13T07:47:46;3.30;99.90
39621;DHT22;25309;48.686;9.170;2022-11-13T07:50:34;3.30;99.90
39621;DHT22;25309;48.686;9.170;2022-11-13T07:53:20;3.40;99.90
39621;DHT22;25309;48.686;9.170;2022-11-13T07:56:08;3.50;99.90
39621;DHT22;25309;48.686;9.170;2022-11-13T07:58:53;3.60;99.90
39621;DHT22;25309;48.686;9.170;2022-11-13T08:01:39;3.60;99.90
39621;DHT22;25309;48.686;9.170;2022-11-13T08:04:25;3.70;99.90
39621;DHT22;25309;48.686;9.170;2022-11-13T08:07:11;3.70;99.90
39621;DHT22;25309;48.686;9.170;2022-11-13T08:09:57;3.80;99.90
39621;DHT22;25309;48.686;9.170;2022-11-13T08:12:44;3.80;99.90
39621;DHT22;25309;48.686;9.170;2022-11-13T08:15:31;3.80;99.90
39621;DHT22;25309;48.686;9.170;2022-11-13T08:18:17;3.90;99.90
39621;DHT22;25309;48.686;9.170;2022-11-13T08:21:03;3.90;99.90
39621;DHT22;25309;48.686;9.170;2022-11-13T08:23:56;4.00;99.90
39621;DHT22;25309;48.686;9.170;2022-11-13T08:26:41;4.10;99.90
39621;DHT22;25309;48.686;9.170;2022-11-13T08:29:28;4.30;99.90
39621;DHT22;25309;48.686;9.170;2022-11-13T08:32:14;4.50;99.90
39621;DHT22;25309;48.686;9.170;2022-11-13T08:35:00;4.90;99.90
39621;DHT22;25309;48.686;9.170;2022-11-13T08:37:46;5.50;99.90
39621;DHT22;25309;48.686;9.170;2022-11-13T08:40:32;6.20;99.90
39621;DHT22;25309;48.686;9.170;2022-11-13T08:43:17;6.80;99.90
39621;DHT22;25309;48.686;9.170;2022-11-13T08:46:05;7.30;99.90
39621;DHT22;25309;48.686;9.170;2022-11-13T08:48:51;7.90;99.90
39621;DHT22;25309;48.686;9.170;2022-11-13T08:51:36;8.40;99.90
39621;DHT22;25309;48.686;9.170;2022-11-13T08:54:22;8.70;99.90
39621;DHT22;25309;48.686;9.170;2022-11-13T08:57:07;8.90;99.90
39621;DHT22;25309;48.686;9.170;2022-11-13T08:59:53;9.00;99.90
39621;DHT22;25309;48.686;9.170;2022-11-13T09:02:40;9.10;99.90
39621;DHT22;25309;48.686;9.170;2022-11-13T09:05:26;9.00;99.90
39621;DHT22;25309;48.686;9.170;2022-11-13T09:08:12;9.10;99.90
39621;DHT22;25309;48.686;9.170;2022-11-13T09:11:01;9.20;99.90
39621;DHT22;25309;48.686;9.170;2022-11-13T09:13:47;9.40;99.90
39621;DHT22;25309;48.686;9.170;2022-11-13T09:16:37;9.70;99.90
39621;DHT22;25309;48.686;9.170;2022-11-13T09:19:24;10.10;99.90
39621;DHT22;25309;48.686;9.170;2022-11-13T09:22:10;10.40;99.90
39621;DHT22;25309;48.686;9.170;2022-11-13T09:24:56;10.70;99.90
39621;DHT22;25309;48.686;9.170;2022-11-13T09:27:41;11.00;99.90
39621;DHT22;25309;48.686;9.170;2022-11-13T09:30:28;11.20;99.90
39621;DHT22;25309;48.686;9.170;2022-11-13T09:33:13;11.50;99.90
39621;DHT22;25309;48.686;9.170;2022-11-13T09:36:01;11.70;99.90
39621;DHT22;25309;48.686;9.170;2022-11-13T09:38:46;11.90;99.90
39621;DHT22;25309;48.686;9.170;2022-11-13T09:41:36;12.10;99.70
39621;DHT22;25309;48.686;9.170;2022-11-13T09:44:29;12.30;99.50
39621;DHT22;25309;48.686;9.170;2022-11-13T09:47:19;12.50;98.90
39621;DHT22;25309;48.686;9.170;2022-11-13T09:50:11;12.60;99.20
39621;DHT22;25309;48.686;9.170;2022-11-13T09:53:02;12.80;98.60
39621;DHT22;25309;48.686;9.170;2022-11-13T09:55:56;13.00;98.30
39621;DHT22;25309;48.686;9.170;2022-11-13T09:58:48;13.30;98.30
39621;DHT22;25309;48.686;9.170;2022-11-13T10:01:46;13.50;97.70
39621;DHT22;25309;48.686;9.170;2022-11-13T10:04:45;13.50;97.70
39621;DHT22;25309;48.686;9.170;2022-11-13T10:07:38;13.60;97.60
39621;DHT22;25309;48.686;9.170;2022-11-13T10:10:53;13.80;97.00
39621;DHT22;25309;48.686;9.170;2022-11-13T10:13:43;14.00;96.40
39621;DHT22;25309;48.686;9.170;2022-11-13T10:16:32;14.30;96.20
39621;DHT22;25309;48.686;9.170;2022-11-13T10:19:25;14.30;95.10
39621;DHT22;25309;48.686;9.170;2022-11-13T10:22:14;14.20;95.30
39621;DHT22;25309;48.686;9.170;2022-11-13T10:25:19;14.10;95.20
39621;DHT22;25309;48.686;9.170;2022-11-13T10:28:12;14.10;95.50
39621;DHT22;25309;48.686;9.170;2022-11-13T10:31:18;14.00;95.20
39621;DHT22;25309;48.686;9.170;2022-11-13T10:34:04;14.00;95.40
39621;DHT22;25309;48.686;9.170;2022-11-13T10:37:04;14.10;95.10
39621;DHT22;25309;48.686;9.170;2022-11-13T10:39:55;14.20;95.30
39621;DHT22;25309;48.686;9.170;2022-11-13T10:42:41;14.40;95.60
39621;DHT22;25309;48.686;9.170;2022-11-13T10:45:28;14.60;95.20
39621;DHT22;25309;48.686;9.170;2022-11-13T10:48:19;14.80;95.20
39621;DHT22;25309;48.686;9.170;2022-11-13T10:51:22;14.90;94.90
39621;DHT22;25309;48.686;9.170;2022-11-13T10:54:23;15.00;94.50
39621;DHT22;25309;48.686;9.170;2022-11-13T10:57:23;15.10;94.60
39621;DHT22;25309;48.686;9.170;2022-11-13T11:00:21;15.40;94.00
39621;DHT22;25309;48.686;9.170;2022-11-13T11:03:12;15.60;93.60
39621;DHT22;25309;48.686;9.170;2022-11-13T11:05:59;15.70;93.30
39621;DHT22;25309;48.686;9.170;2022-11-13T11:08:45;15.70;93.10
39621;DHT22;25309;48.686;9.170;2022-11-13T11:11:31;16.00;92.90
39621;DHT22;25309;48.686;9.170;2022-11-13T11:14:39;16.30;92.10
39621;DHT22;25309;48.686;9.170;2022-11-13T11:17:30;16.50;92.40
39621;DHT22;25309;48.686;9.170;2022-11-13T11:20:23;16.70;91.80
39621;DHT22;25309;48.686;9.170;2022-11-13T11:23:17;16.70;91.30
39621;DHT22;25309;48.686;9.170;2022-11-13T11:26:10;16.70;91.90
39621;DHT22;25309;48.686;9.170;2022-11-13T11:29:09;16.70;91.80
39621;DHT22;25309;48.686;9.170;2022-11-13T11:32:00;16.70;92.40
39621;DHT22;25309;48.686;9.170;2022-11-13T11:34:52;16.90;91.30
39621;DHT22;25309;48.686;9.170;2022-11-13T11:37:52;16.90;91.00
39621;DHT22;25309;48.686;9.170;2022-11-13T11:40:40;16.70;91.40
39621;DHT22;25309;48.686;9.170;2022-11-13T11:43:33;16.80;91.50
39621;DHT22;25309;48.686;9.170;2022-11-13T11:46:22;17.00;91.40
39621;DHT22;25309;48.686;9.170;2022-11-13T11:49:09;17.10;91.10
39621;DHT22;25309;48.686;9.170;2022-11-13T11:52:03;17.10;90.90
39621;DHT22;25309;48.686;9.170;2022-11-13T11:55:01;17.00;90.10
39621;DHT22;25309;48.686;9.170;2022-11-13T11:57:55;16.90;90.30
39621;DHT22;25309;48.686;9.170;2022-11-13T12:00:48;16.80;90.70
39621;DHT22;25309;48.686;9.170;2022-11-13T12:04:16;16.90;90.60
39621;DHT22;25309;48.686;9.170;2022-11-13T12:07:19;17.00;89.80
39621;DHT22;25309;48.686;9.170;2022-11-13T12:10:21;16.90;90.50
39621;DHT22;25309;48.686;9.170;2022-11-13T12:13:22;16.90;90.50
39621;DHT22;25309;48.686;9.170;2022-11-13T12:16:14;16.90;90.60
39621;DHT22;25309;48.686;9.170;2022-11-13T12:19:12;16.90;91.00
39621;DHT22;25309;48.686;9.170;2022-11-13T12:22:05;16.90;91.00
39621;DHT22;25309;48.686;9.170;2022-11-13T12:25:06;17.00;90.50
39621;DHT22;25309;48.686;9.170;2022-11-13T12:28:02;17.10;90.60
39621;DHT22;25309;48.686;9.170;2022-11-13T12:30:58;17.30;90.00
39621;DHT22;25309;48.686;9.170;2022-11-13T12:33:51;17.40;90.30
39621;DHT22;25309;48.686;9.170;2022-11-13T12:36:46;17.50;90.20
39621;DHT22;25309;48.686;9.170;2022-11-13T12:39:42;17.60;89.60
39621;DHT22;25309;48.686;9.170;2022-11-13T12:42:33;17.60;89.90
39621;DHT22;25309;48.686;9.170;2022-11-13T12:45:24;17.70;90.00
39621;DHT22;25309;48.686;9.170;2022-11-13T12:48:24;17.80;88.80
39621;DHT22;25309;48.686;9.170;2022-11-13T12:51:12;17.70;88.30
39621;DHT22;25309;48.686;9.170;2022-11-13T12:53:59;17.70;88.40
39621;DHT22;25309;48.686;9.170;2022-11-13T12:56:44;17.70;88.50
39621;DHT22;25309;48.686;9.170;2022-11-13T12:59:32;17.70;89.10
39621;DHT22;25309;48.686;9.170;2022-11-13T13:02:37;17.70;87.50
39621;DHT22;25309;48.686;9.170;2022-11-13T13:05:36;17.60;88.60
39621;DHT22;25309;48.686;9.170;2022-11-13T13:08:34;17.50;88.50
39621;DHT22;25309;48.686;9.170;2022-11-13T13:11:29;17.50;89.30
39621;DHT22;25309;48.686;9.170;2022-11-13T13:14:30;17.50;88.80
39621;DHT22;25309;48.686;9.170;2022-11-13T13:17:19;17.50;88.80
39621;DHT22;25309;48.686;9.170;2022-11-13T13:20:28;17.50;89.20
39621;DHT22;25309;48.686;9.170;2022-11-13T13:23:25;17.50;89.70
39621;DHT22;25309;48.686;9.170;2022-11-13T13:26:18;17.60;89.30
39621;DHT22;25309;48.686;9.170;2022-11-13T13:29:13;17.60;89.10
39621;DHT22;25309;48.686;9.170;2022-11-13T13:32:06;17.70;89.70
39621;DHT22;25309;48.686;9.170;2022-11-13T13:35:09;17.50;88.80
39621;DHT22;25309;48.686;9.170;2022-11-13T13:38:00;17.30;90.20
39621;DHT22;25309;48.686;9.170;2022-11-13T13:44:25;17.10;89.80
39621;DHT22;25309;48.686;9.170;2022-11-13T13:47:24;17.00;90.50
39621;DHT22;25309;48.686;9.170;2022-11-13T13:50:15;16.90;90.60
39621;DHT22;25309;48.686;9.170;2022-11-13T13:53:03;16.80;90.70
39621;DHT22;25309;48.686;9.170;2022-11-13T13:55:51;16.90;91.00
39621;DHT22;25309;48.686;9.170;2022-11-13T13:58:38;16.80;91.20
39621;DHT22;25309;48.686;9.170;2022-11-13T14:01:29;16.70;91.70
39621;DHT22;25309;48.686;9.170;2022-11-13T14:04:18;16.60;91.80
39621;DHT22;25309;48.686;9.170;2022-11-13T14:07:17;16.70;92.10
39621;DHT22;25309;48.686;9.170;2022-11-13T14:10:12;16.70;92.00
39621;DHT22;25309;48.686;9.170;2022-11-13T14:12:58;16.80;92.30
39621;DHT22;25309;48.686;9.170;2022-11-13T14:15:44;16.90;92.20
39621;DHT22;25309;48.686;9.170;2022-11-13T14:18:30;16.90;92.10
39621;DHT22;25309;48.686;9.170;2022-11-13T14:21:18;17.00;91.90
39621;DHT22;25309;48.686;9.170;2022-11-13T14:24:08;17.00;91.30
39621;DHT22;25309;48.686;9.170;2022-11-13T14:27:01;17.00;91.20
39621;DHT22;25309;48.686;9.170;2022-11-13T14:29:50;16.90;91.20
39621;DHT22;25309;48.686;9.170;2022-11-13T14:32:39;16.90;91.20
39621;DHT22;25309;48.686;9.170;2022-11-13T14:35:31;16.80;91.00
39621;DHT22;25309;48.686;9.170;2022-11-13T14:38:19;16.80;91.10
39621;DHT22;25309;48.686;9.170;2022-11-13T14:41:05;16.80;91.20
39621;DHT22;25309;48.686;9.170;2022-11-13T14:43:52;16.60;91.20
39621;DHT22;25309;48.686;9.170;2022-11-13T14:46:41;16.50;91.30
39621;DHT22;25309;48.686;9.170;2022-11-13T14:49:30;16.30;91.50
39621;DHT22;25309;48.686;9.170;2022-11-13T14:52:20;16.30;91.30
39621;DHT22;25309;48.686;9.170;2022-11-13T14:55:22;16.10;91.50
39621;DHT22;25309;48.686;9.170;2022-11-13T14:58:11;16.00;91.60
39621;DHT22;25309;48.686;9.170;2022-11-13T15:01:10;15.90;91.50
39621;DHT22;25309;48.686;9.170;2022-11-13T15:03:55;15.80;91.70
39621;DHT22;25309;48.686;9.170;2022-11-13T15:06:41;15.70;91.50
39621;DHT22;25309;48.686;9.170;2022-11-13T15:09:27;15.60;91.50
39621;DHT22;25309;48.686;9.170;2022-11-13T15:12:13;15.60;91.50
39621;DHT22;25309;48.686;9.170;2022-11-13T15:14:59;15.50;91.80
39621;DHT22;25309;48.686;9.170;2022-11-13T15:17:47;15.40;92.00
39621;DHT22;25309;48.686;9.170;2022-11-13T15:20:33;15.20;92.20
39621;DHT22;25309;48.686;9.170;2022-11-13T15:23:22;15.10;92.60
39621;DHT22;25309;48.686;9.170;2022-11-13T15:26:14;14.90;92.60
39621;DHT22;25309;48.686;9.170;2022-11-13T15:29:01;14.70;92.90
39621;DHT22;25309;48.686;9.170;2022-11-13T15:31:47;14.60;93.30
39621;DHT22;25309;48.686;9.170;2022-11-13T15:34:34;14.40;93.60
39621;DHT22;25309;48.686;9.170;2022-11-13T15:37:20;14.30;93.90
39621;DHT22;25309;48.686;9.170;2022-11-13T15:40:07;14.20;93.90
39621;DHT22;25309;48.686;9.170;2022-11-13T15:42:53;14.10;94.10
39621;DHT22;25309;48.686;9.170;2022-11-13T15:45:39;14.00;94.30
39621;DHT22;25309;48.686;9.170;2022-11-13T15:48:28;13.90;94.30
39621;DHT22;25309;48.686;9.170;2022-11-13T15:51:19;13.80;94.40
39621;DHT22;25309;48.686;9.170;2022-11-13T15:54:12;13.60;94.60
39621;DHT22;25309;48.686;9.170;2022-11-13T15:56:58;13.50;94.70
39621;DHT22;25309;48.686;9.170;2022-11-13T15:59:44;13.30;95.00
39621;DHT22;25309;48.686;9.170;2022-11-13T16:02:29;13.20;95.10
39621;DHT22;25309;48.686;9.170;2022-11-13T16:05:16;13.00;95.20
39621;DHT22;25309;48.686;9.170;2022-11-13T16:08:10;12.90;95.30
39621;DHT22;25309;48.686;9.170;2022-11-13T16:10:56;12.80;95.70
39621;DHT22;25309;48.686;9.170;2022-11-13T16:13:41;12.60;95.90
39621;DHT22;25309;48.686;9.170;2022-11-13T16:16:31;12.50;96.30
39621;DHT22;25309;48.686;9.170;2022-11-13T16:19:22;12.30;96.70
39621;DHT22;25309;48.686;9.170;2022-11-13T16:22:16;12.20;97.00
39621;DHT22;25309;48.686;9.170;2022-11-13T16:25:03;12.00;97.00
39621;DHT22;25309;48.686;9.170;2022-11-13T16:27:50;11.90;97.20
39621;DHT22;25309;48.686;9.170;2022-11-13T16:30:35;11.80;97.20
39621;DHT22;25309;48.686;9.170;2022-11-13T16:33:21;11.80;97.40
39621;DHT22;25309;48.686;9.170;2022-11-13T16:36:11;11.70;97.60
39621;DHT22;25309;48.686;9.170;2022-11-13T16:38:58;11.60;97.80
39621;DHT22;25309;48.686;9.170;2022-11-13T16:41:44;11.50;97.90
39621;DHT22;25309;48.686;9.170;2022-11-13T16:44:31;11.40;98.00
39621;DHT22;25309;48.686;9.170;2022-11-13T16:47:20;11.30;98.10
39621;DHT22;25309;48.686;9.170;2022-11-13T16:50:12;11.20;98.30
39621;DHT22;25309;48.686;9.170;2022-11-13T16:52:58;11.10;98.40
39621;DHT22;25309;48.686;9.170;2022-11-13T16:55:43;11.00;98.60
39621;DHT22;25309;48.686;9.170;2022-11-13T16:58:30;11.00;98.70
39621;DHT22;25309;48.686;9.170;2022-11-13T17:01:17;10.90;98.80
39621;DHT22;25309;48.686;9.170;2022-11-13T17:04:03;10.80;98.70
39621;DHT22;25309;48.686;9.170;2022-11-13T17:06:49;10.70;99.00
39621;DHT22;25309;48.686;9.170;2022-11-13T17:09:40;10.60;99.10
39621;DHT22;25309;48.686;9.170;2022-11-13T17:12:26;10.50;99.20
39621;DHT22;25309;48.686;9.170;2022-11-13T17:15:13;10.50;99.30
39621;DHT22;25309;48.686;9.170;2022-11-13T17:17:59;10.40;99.50
39621;DHT22;25309;48.686;9.170;2022-11-13T17:20:44;10.30;99.50
39621;DHT22;25309;48.686;9.170;2022-11-13T17:23:30;10.30;99.60
39621;DHT22;25309;48.686;9.170;2022-11-13T17:26:16;10.20;99.70
39621;DHT22;25309;48.686;9.170;2022-11-13T17:29:02;10.20;99.60
39621;DHT22;25309;48.686;9.170;2022-11-13T17:31:50;10.10;99.70
39621;DHT22;25309;48.686;9.170;2022-11-13T17:34:36;10.10;99.90
39621;DHT22;25309;48.686;9.170;2022-11-13T17:37:22;10.00;99.90
39621;DHT22;25309;48.686;9.170;2022-11-13T17:40:10;10.00;99.90
39621;DHT22;25309;48.686;9.170;2022-11-13T17:42:56;10.00;99.90
39621;DHT22;25309;48.686;9.170;2022-11-13T17:45:41;9.90;99.90
39621;DHT22;25309;48.686;9.170;2022-11-13T17:48:31;9.90;99.90
39621;DHT22;25309;48.686;9.170;2022-11-13T17:51:17;9.80;99.90
39621;DHT22;25309;48.686;9.170;2022-11-13T17:54:03;9.80;99.90
39621;DHT22;25309;48.686;9.170;2022-11-13T17:56:48;9.70;99.90
39621;DHT22;25309;48.686;9.170;2022-11-13T17:59:34;9.70;99.90
39621;DHT22;25309;48.686;9.170;2022-11-13T18:02:19;9.70;99.90
39621;DHT22;25309;48.686;9.170;2022-11-13T18:05:07;9.70;99.90
39621;DHT22;25309;48.686;9.170;2022-11-13T18:07:54;9.60;99.90
39621;DHT22;25309;48.686;9.170;2022-11-13T18:10:40;9.50;99.90
39621;DHT22;25309;48.686;9.170;2022-11-13T18:13:26;9.50;99.90
39621;DHT22;25309;48.686;9.170;2022-11-13T18:16:14;9.40;99.90
39621;DHT22;25309;48.686;9.170;2022-11-13T18:19:00;9.40;99.90
39621;DHT22;25309;48.686;9.170;2022-11-13T18:21:49;9.30;99.90
39621;DHT22;25309;48.686;9.170;2022-11-13T18:24:34;9.20;99.90
39621;DHT22;25309;48.686;9.170;2022-11-13T18:27:19;9.20;99.90
39621;DHT22;25309;48.686;9.170;2022-11-13T18:30:07;9.10;99.90
39621;DHT22;25309;48.686;9.170;2022-11-13T18:32:52;9.10;99.90
39621;DHT22;25309;48.686;9.170;2022-11-13T18:35:38;9.00;99.90
39621;DHT22;25309;48.686;9.170;2022-11-13T18:38:25;9.00;99.90
39621;DHT22;25309;48.686;9.170;2022-11-13T18:41:12;8.80;99.90
39621;DHT22;25309;48.686;9.170;2022-11-13T18:43:58;8.80;99.90
39621;DHT22;25309;48.686;9.170;2022-11-13T18:46:43;8.70;99.90
39621;DHT22;25309;48.686;9.170;2022-11-13T18:49:29;8.50;99.90
39621;DHT22;25309;48.686;9.170;2022-11-13T18:52:14;8.40;99.90
39621;DHT22;25309;48.686;9.170;2022-11-13T18:55:01;8.30;99.90
39621;DHT22;25309;48.686;9.170;2022-11-13T18:57:47;8.30;99.90
39621;DHT22;25309;48.686;9.170;2022-11-13T19:00:33;8.30;99.90
39621;DHT22;25309;48.686;9.170;2022-11-13T19:03:19;8.30;99.90
39621;DHT22;25309;48.686;9.170;2022-11-13T19:06:05;8.30;99.90
39621;DHT22;25309;48.686;9.170;2022-11-13T19:08:53;8.30;99.90
39621;DHT22;25309;48.686;9.170;2022-11-13T19:11:41;8.20;99.90
39621;DHT22;25309;48.686;9.170;2022-11-13T19:14:27;8.10;99.90
39621;DHT22;25309;48.686;9.170;2022-11-13T19:17:12;8.10;99.90
39621;DHT22;25309;48.686;9.170;2022-11-13T19:19:58;8.10;99.90
39621;DHT22;25309;48.686;9.170;2022-11-13T19:22:43;8.10;99.90
39621;DHT22;25309;48.686;9.170;2022-11-13T19:25:29;8.10;99.90
39621;DHT22;25309;48.686;9.170;2022-11-13T19:28:16;8.10;99.90
39621;DHT22;25309;48.686;9.170;2022-11-13T19:31:05;8.00;99.90
39621;DHT22;25309;48.686;9.170;2022-11-13T19:33:53;8.00;99.90
39621;DHT22;25309;48.686;9.170;2022-11-13T19:36:39;8.00;99.90
39621;DHT22;25309;48.686;9.170;2022-11-13T19:39:25;8.00;99.90
39621;DHT22;25309;48.686;9.170;2022-11-13T19:42:11;8.00;99.90
39621;DHT22;25309;48.686;9.170;2022-11-13T19:44:57;7.90;99.90
39621;DHT22;25309;48.686;9.170;2022-11-13T19:47:43;7.90;99.90
39621;DHT22;25309;48.686;9.170;2022-11-13T19:50:29;7.80;99.90
39621;DHT22;25309;48.686;9.170;2022-11-13T19:53:15;7.80;99.90
39621;DHT22;25309;48.686;9.170;2022-11-13T19:56:01;7.70;99.90
39621;DHT22;25309;48.686;9.170;2022-11-13T19:58:47;7.70;99.90
39621;DHT22;25309;48.686;9.170;2022-11-13T20:01:34;7.70;99.90
39621;DHT22;25309;48.686;9.170;2022-11-13T20:04:20;7.70;99.90
39621;DHT22;25309;48.686;9.170;2022-11-13T20:07:06;7.70;99.90
39621;DHT22;25309;48.686;9.170;2022-11-13T20:09:51;7.70;99.90
39621;DHT22;25309;48.686;9.170;2022-11-13T20:12:37;7.70;99.90
39621;DHT22;25309;48.686;9.170;2022-11-13T20:15:22;7.70;99.90
39621;DHT22;25309;48.686;9.170;2022-11-13T20:18:09;7.70;99.90
39621;DHT22;25309;48.686;9.170;2022-11-13T20:20:55;7.70;99.90
39621;DHT22;25309;48.686;9.170;2022-11-13T20:23:40;7.70;99.90
39621;DHT22;25309;48.686;9.170;2022-11-13T20:26:26;7.60;99.90
39621;DHT22;25309;48.686;9.170;2022-11-13T20:29:12;7.60;99.90
39621;DHT22;25309;48.686;9.170;2022-11-13T20:31:58;7.40;99.90
39621;DHT22;25309;48.686;9.170;2022-11-13T20:34:44;7.40;99.90
39621;DHT22;25309;48.686;9.170;2022-11-13T20:37:30;7.30;99.90
39621;DHT22;25309;48.686;9.170;2022-11-13T20:40:16;7.30;99.90
39621;DHT22;25309;48.686;9.170;2022-11-13T20:43:01;7.30;99.90
39621;DHT22;25309;48.686;9.170;2022-11-13T20:45:47;7.30;99.90
39621;DHT22;25309;48.686;9.170;2022-11-13T20:48:33;7.30;99.90
39621;DHT22;25309;48.686;9.170;2022-11-13T20:51:21;7.20;99.90
39621;DHT22;25309;48.686;9.170;2022-11-13T20:54:07;7.10;99.90
39621;DHT22;25309;48.686;9.170;2022-11-13T20:56:53;7.00;99.90
39621;DHT22;25309;48.686;9.170;2022-11-13T20:59:38;6.70;99.90
39621;DHT22;25309;48.686;9.170;2022-11-13T21:02:24;6.50;99.90
39621;DHT22;25309;48.686;9.170;2022-11-13T21:05:09;6.40;99.90
39621;DHT22;25309;48.686;9.170;2022-11-13T21:07:57;6.40;99.90
39621;DHT22;25309;48.686;9.170;2022-11-13T21:10:43;6.30;99.90
39621;DHT22;25309;48.686;9.170;2022-11-13T21:13:29;6.20;99.90
39621;DHT22;25309;48.686;9.170;2022-11-13T21:16:15;6.20;99.90
39621;DHT22;25309;48.686;9.170;2022-11-13T21:19:02;6.10;99.90
39621;DHT22;25309;48.686;9.170;2022-11-13T21:21:47;6.00;99.90
39621;DHT22;25309;48.686;9.170;2022-11-13T21:24:34;5.80;99.90
39621;DHT22;25309;48.686;9.170;2022-11-13T21:27:22;5.80;99.90
39621;DHT22;25309;48.686;9.170;2022-11-13T21:30:08;5.70;99.90
39621;DHT22;25309;48.686;9.170;2022-11-13T21:32:54;5.60;99.90
39621;DHT22;25309;48.686;9.170;2022-11-13T21:35:41;5.60;99.90
39621;DHT22;25309;48.686;9.170;2022-11-13T21:38:26;5.50;99.90
39621;DHT22;25309;48.686;9.170;2022-11-13T21:41:14;5.40;99.90
39621;DHT22;25309;48.686;9.170;2022-11-13T21:44:06;5.30;99.90
39621;DHT22;25309;48.686;9.170;2022-11-13T21:46:53;5.30;99.90
39621;DHT22;25309;48.686;9.170;2022-11-13T21:49:38;5.30;99.90
39621;DHT22;25309;48.686;9.170;2022-11-13T21:52:24;5.20;99.90
39621;DHT22;25309;48.686;9.170;2022-11-13T21:55:10;5.30;99.90
39621;DHT22;25309;48.686;9.170;2022-11-13T21:57:56;5.30;99.90
39621;DHT22;25309;48.686;9.170;2022-11-13T22:00:42;5.20;99.90